Flight Track Log - Related Links

Times and Time Zones

All times are in EDT time to prevent confusion due to time zone crossing. See the N411WC flight status page for this flight to view local times or setup timezone preferences in your user account.

Time Position Orientation Groundspeed Altitude Reporting Facility
EDT Latitude Longitude Course Direction KTS MPH feet Rate Location/Type
Tue 08:15:19 PM 38.6500 -121.3000 11° North 207 238 4,400  Level Northern Cal TRACON
Tue 08:16:19 PM 38.7000 -121.3167 345° North 209 241 6,500 2,150 Climbing Northern Cal TRACON
Tue 08:17:19 PM 38.7667 -121.3167 360° North 212 244 8,700 2,056 Climbing Northern Cal TRACON
Tue 08:19:00 PM 38.9985 -121.3857 351° North  Level Estimated
Tue 08:19:17 PM 38.8689 -121.3431 349° North 215 247 12,600  Level Oakland Center
Tue 08:20:18 PM 38.9261 -121.3547 351° North 210 242 14,700 2,049 Climbing Oakland Center
Tue 08:21:20 PM 38.9828 -121.3661 351° North 208 239 16,800 2,098 Climbing Oakland Center
Tue 08:22:21 PM 39.0375 -121.3772 351° North 200 230 19,000 1,902 Climbing Oakland Center
Tue 08:23:23 PM 39.0942 -121.3906 350° North 206 237 20,700 1,805 Climbing Oakland Center
Tue 08:24:24 PM 39.1628 -121.4033 352° North 210 242 22,700 1,820 Climbing Oakland Center
Tue 08:25:25 PM 39.2206 -121.4156 351° North 210 242 24,400 1,512 Climbing Oakland Center
Tue 08:26:27 PM 39.2769 -121.4283 350° North 207 238 25,800 780 Climbing Oakland Center
Tue 08:27:28 PM 39.3383 -121.4400 352° North 218 251 26,000 98 Climbing Oakland Center
Tue 08:28:29 PM 39.4117 -121.4561 350° North 258 297 26,000  Level Oakland Center
Tue 08:29:31 PM 39.4875 -121.4714 351° North 272 313 26,000  Level Oakland Center
Tue 08:30:32 PM 39.5653 -121.4853 352° North 279 321 26,000  Level Oakland Center
Tue 08:31:33 PM 39.6458 -121.5025 351° North 292 336 26,000  Level Oakland Center
Tue 08:32:35 PM 39.7417 -121.5219 351° North 291 335 26,000 634 Level Oakland Center
Tue 08:33:36 PM 39.8200 -121.5372 351° North 285 328 27,300 1,180 Climbing Oakland Center
Tue 08:34:37 PM 39.8869 -121.5519 350° North 251 289 28,400 836 Climbing Oakland Center
Tue 08:35:38 PM 39.9525 -121.5664 350° North 242 278 29,000 293 Climbing Oakland Center
Tue 08:36:40 PM 40.0236 -121.5808 351° North 256 295 29,000  Level Oakland Center
Tue 08:37:41 PM 40.1011 -121.5983 350° North 280 322 29,000  Level Oakland Center
Tue 08:38:42 PM 40.1797 -121.6131 352° North 286 329 29,000  Level Oakland Center
Tue 08:39:44 PM 40.2597 -121.6303 351° North 291 335 29,000  Level Oakland Center
Tue 08:40:45 PM 40.3583 -121.6511 351° North 301 346 29,000  Level Oakland Center
Tue 08:41:46 PM 40.4403 -121.6683 351° North 302 348 29,000 98 Level Oakland Center
Tue 08:42:48 PM 40.5222 -121.6861 351° North 302 348 29,200 488 Climbing Oakland Center
Tue 08:43:49 PM 40.6022 -121.7039 350° North 295 339 30,000 393 Climbing Oakland Center
Tue 08:44:50 PM 40.6808 -121.7194 351° North 290 334 30,000  Level Oakland Center
Tue 08:45:52 PM 40.7614 -121.7358 351° North 294 338 30,000  Level Oakland Center
Tue 08:46:53 PM 40.8442 -121.7550 350° North 303 349 30,000  Level Oakland Center
Tue 08:47:54 PM 40.9297 -121.7739 351° North 311 358 30,000  Level Oakland Center
Tue 08:48:55 PM 41.0336 -121.7944 352° North 316 364 30,000  Level Oakland Center
Tue 08:49:56 PM 41.1078 -121.8133 349° North 318 366 30,000  Level Oakland Center
Tue 08:50:58 PM 41.1947 -121.8333 350° North 317 365 30,000  Level Oakland Center
Tue 08:51:59 PM 41.2808 -121.8514 351° North 315 362 30,000  Level Oakland Center
Tue 08:53:00 PM 41.3847 -121.8739 351° North 315 362 30,000  Level Oakland Center
Tue 08:53:33 PM 41.4197 -121.8808 352° North 316 364 30,000  Level Seattle Center
Tue 08:54:34 PM 41.5081 -121.9003 351° North 319 367 30,000  Level Seattle Center
Tue 08:55:35 PM 41.5958 -121.9194 351° North 320 368 30,000  Level Seattle Center
Tue 08:56:36 PM 41.7017 -121.9428 351° North 320 368 30,000  Level Seattle Center
Tue 08:57:36 PM 41.7900 -121.9614 351° North 322 371 30,000  Level Seattle Center
Tue 08:58:37 PM 41.8772 -121.9803 351° North 319 367 30,000  Level Seattle Center
Tue 08:59:39 PM 41.9658 -121.9997 351° North 321 369 30,000  Level Seattle Center
Tue 09:00:40 PM 42.0558 -122.0178 352° North 319 367 30,000  Level Seattle Center
Tue 09:01:40 PM 42.1303 -122.0367 349° North 331 381 30,000  Level Seattle Center
Tue 09:02:41 PM 42.2375 -122.0603 351° North 324 373 30,000  Level Seattle Center
Tue 09:03:42 PM 42.3258 -122.0803 350° North 322 371 30,000  Level Seattle Center
Tue 09:04:43 PM 42.4139 -122.1000 351° North 322 371 30,000  Level Seattle Center
Tue 09:05:44 PM 42.5028 -122.1206 350° North 323 372 30,000  Level Seattle Center
Tue 09:06:45 PM 42.5908 -122.1408 350° North 323 372 30,000  Level Seattle Center
Tue 09:07:46 PM 42.6789 -122.1611 350° North 323 372 30,000  Level Seattle Center
Tue 09:08:46 PM 42.7678 -122.1817 350° North 325 374 30,000  Level Seattle Center
Tue 09:09:47 PM 42.8564 -122.2014 351° North 326 375 30,000  Level Seattle Center
Tue 09:10:48 PM 42.9486 -122.2222 351° North 320 368 30,000  Level Seattle Center
Tue 09:11:49 PM 43.0350 -122.2414 351° North 316 364 30,000  Level Seattle Center
Tue 09:12:50 PM 43.1217 -122.2617 350° North 315 362 30,000  Level Seattle Center
Tue 09:13:51 PM 43.2081 -122.2817 350° North 314 361 30,000  Level Seattle Center
Tue 09:14:51 PM 43.2939 -122.3008 351° North 314 361 30,000  Level Seattle Center
Tue 09:15:52 PM 43.3792 -122.3214 350° North 312 359 30,000  Level Seattle Center
Tue 09:16:53 PM 43.4650 -122.3411 351° North 313 360 30,000  Level Seattle Center
Tue 09:17:54 PM 43.5508 -122.3597 351° North 315 362 30,000  Level Seattle Center
Tue 09:18:55 PM 43.6378 -122.3808 350° North 318 366 30,000  Level Seattle Center
Tue 09:19:56 PM 43.7242 -122.4014 350° North 316 364 30,000 -248 Level Seattle Center
Tue 09:20:56 PM 43.8100 -122.4242 349° North 316 364 29,500 -1,388 Descending Seattle Center
Tue 09:21:57 PM 43.9222 -122.4569 348° North 345 397 27,200 -2,115 Descending Seattle Center
Tue 09:22:58 PM 44.0125 -122.4844 348° North 336 387 25,200 -1,967 Descending Seattle Center
Tue 09:23:59 PM 44.1000 -122.5108 348° North 327 376 23,200 -1,967 Descending Seattle Center
Tue 09:25:00 PM 44.1856 -122.5381 347° North 317 365 21,200 -1,967 Descending Seattle Center
Tue 09:26:01 PM 44.2686 -122.5644 347° North 309 356 19,200 -1,967 Descending Seattle Center
Tue 09:27:02 PM 44.3539 -122.5908 348° North 313 360 17,200 -1,918 Descending Seattle Center
Tue 09:28:03 PM 44.4422 -122.6197 347° North 325 374 15,300 -1,918 Descending Seattle Center
Tue 09:29:04 PM 44.5367 -122.6494 347° North 325 374 13,300 -1,785 Descending Seattle Center
Tue 09:30:04 PM 44.6211 -122.6756 348° North 315 362 11,700 -1,587 Descending Seattle Center
Tue 09:31:05 PM 44.7039 -122.7033 347° North 310 357 10,100 -1,525 Descending Seattle Center
Tue 09:32:06 PM 44.7792 -122.7258 348° North 281 323 8,600 -1,551 Descending Seattle Center
Tue 09:32:34 PM 44.8189 -122.7400 346° North 273 314 7,800 -1,565 Descending Seattle Center
Tue 09:32:52 PM 44.8400 -122.7469 347° North 272 313 7,400 -1,091 Descending Seattle Center
Tue 09:33:07 PM 44.8514 -122.7489 353° North 271 312 7,200 -1,309 Descending Seattle Center
Tue 09:33:47 PM 44.9006 -122.7681 345° North 241 277 6,200 -1,279 Descending Seattle Center
Tue 09:34:08 PM 44.9153 -122.7689 358° North 241 277 5,900 -1,000 Descending Seattle Center
Tue 09:34:53 PM 44.9581 -122.7847 345° North 210 242 5,100 -1,000 Descending Seattle Center
Tue 09:35:08 PM 44.9667 -122.7856 356° North 193 222 4,900 -1,082 Descending Seattle Center
Tue 09:35:54 PM 45.0108 -122.8003 347° North 207 238 4,000 -1,082 Descending Seattle Center
Tue 09:36:09 PM 45.0225 -122.8033 350° North 206 237 3,800 -982 Descending Seattle Center
Tue 09:36:49 PM 45.0636 -122.8036 360° North 200 230 3,100 -787 Descending Seattle Center
Tue 09:37:10 PM 45.0744 -122.8008 10° North 187 215 3,000 -286 Descending Seattle Center

Login

Don't have an account? Register now (free) for customized features, flight alerts, and more!